createdAt,value
2022-08-19T00:02:06.877Z,81.50
2022-08-19T00:06:10.829Z,81.40
2022-08-19T00:10:15.722Z,81.30
2022-08-19T00:14:19.468Z,81.30
2022-08-19T00:18:22.509Z,81.10
2022-08-19T00:22:25.541Z,81.10
2022-08-19T00:26:29.590Z,81.30
2022-08-19T00:30:32.649Z,82.30
2022-08-19T00:34:36.387Z,82.30
2022-08-19T00:38:44.081Z,82.20
2022-08-19T00:42:47.579Z,82.00
2022-08-19T00:46:55.536Z,81.80
2022-08-19T00:51:02.347Z,81.60
2022-08-19T00:55:09.332Z,81.60
2022-08-19T00:59:13.151Z,81.60
2022-08-19T01:03:19.618Z,81.40
2022-08-19T01:07:22.842Z,81.30
2022-08-19T01:11:29.525Z,80.60
2022-08-19T01:15:42.804Z,81.30
2022-08-19T01:19:47.974Z,81.40
2022-08-19T01:23:51.821Z,81.20
2022-08-19T01:27:55.475Z,81.10
2022-08-19T01:32:05.239Z,81.00
2022-08-19T01:36:17.481Z,81.00
2022-08-19T01:40:23.052Z,81.20
2022-08-19T01:44:26.119Z,81.20
2022-08-19T01:48:33.360Z,81.00
2022-08-19T01:52:38.230Z,81.20
2022-08-19T01:56:41.235Z,81.30
2022-08-19T02:00:45.059Z,81.20
2022-08-19T02:04:50.098Z,81.00
2022-08-19T02:08:53.021Z,80.80
2022-08-19T02:13:00.476Z,80.80
2022-08-19T02:17:03.712Z,80.80
2022-08-19T02:21:07.279Z,80.70
2022-08-19T02:25:12.764Z,80.70
2022-08-19T02:29:15.809Z,80.70
2022-08-19T02:33:18.794Z,80.70
2022-08-19T02:37:40.212Z,80.60
2022-08-19T02:41:43.133Z,80.50
2022-08-19T02:45:46.568Z,80.50
2022-08-19T02:49:50.793Z,80.40
2022-08-19T02:53:54.412Z,80.20
2022-08-19T02:57:58.186Z,80.20
2022-08-19T03:02:01.255Z,80.30
2022-08-19T03:06:16.159Z,80.50
2022-08-19T03:10:19.504Z,80.80
2022-08-19T03:14:24.257Z,80.60
2022-08-19T03:18:27.399Z,80.60
2022-08-19T03:22:31.118Z,80.60
2022-08-19T03:26:35.194Z,81.00
2022-08-19T03:30:38.196Z,81.00
2022-08-19T03:34:45.087Z,80.80
2022-08-19T03:38:56.246Z,80.80
2022-08-19T03:43:02.763Z,81.10
2022-08-19T03:47:06.674Z,81.00
2022-08-19T03:51:30.687Z,81.20
2022-08-19T03:55:34.010Z,81.50
2022-08-19T03:59:38.585Z,81.50
2022-08-19T04:03:41.955Z,81.50
2022-08-19T04:07:45.091Z,81.50
2022-08-19T04:11:54.895Z,81.50
2022-08-19T04:15:57.891Z,81.60
2022-08-19T04:20:01.118Z,81.60
2022-08-19T04:24:11.895Z,81.60
2022-08-19T04:28:15.314Z,81.60
2022-08-19T04:32:18.332Z,81.60
2022-08-19T04:36:26.538Z,81.60
2022-08-19T04:40:47.898Z,81.90
2022-08-19T04:44:51.847Z,82.00
2022-08-19T04:48:54.790Z,82.00
2022-08-19T04:52:57.783Z,82.20
2022-08-19T04:57:00.888Z,82.70
2022-08-19T05:01:05.131Z,82.80
2022-08-19T05:05:08.813Z,82.90
2022-08-19T05:09:11.743Z,82.70
2022-08-19T05:13:15.814Z,82.60
2022-08-19T05:17:38.281Z,82.50
2022-08-19T05:22:01.627Z,82.40
2022-08-19T05:26:05.058Z,82.30
2022-08-19T05:30:08.594Z,82.10
2022-08-19T05:34:20.156Z,82.00
2022-08-19T05:38:23.527Z,81.90
2022-08-19T05:42:27.549Z,81.70
2022-08-19T05:46:30.604Z,81.70
2022-08-19T05:50:33.601Z,82.10
2022-08-19T05:54:41.129Z,82.40
2022-08-19T05:58:45.954Z,82.70
2022-08-19T06:02:48.844Z,82.50
2022-08-19T06:06:53.596Z,82.10
2022-08-19T06:10:56.948Z,82.00
2022-08-19T06:15:05.491Z,81.80
2022-08-19T06:19:11.832Z,81.90
2022-08-19T06:23:17.118Z,82.00
2022-08-19T06:27:21.250Z,82.00
2022-08-19T06:31:28.540Z,82.10
2022-08-19T06:35:31.596Z,82.10
2022-08-19T06:39:39.178Z,82.00
2022-08-19T06:43:43.672Z,82.10
2022-08-19T06:47:49.213Z,81.90
2022-08-19T06:51:52.824Z,82.00
2022-08-19T06:56:00.995Z,82.00
2022-08-19T07:00:07.190Z,81.90
2022-08-19T07:04:14.935Z,81.90
2022-08-19T07:08:18.054Z,81.70
2022-08-19T07:12:22.627Z,81.60
2022-08-19T07:16:28.950Z,81.40
2022-08-19T07:20:33.877Z,81.40
2022-08-19T07:24:39.320Z,81.10
2022-08-19T07:28:54.394Z,81.30
2022-08-19T07:32:58.612Z,81.30
2022-08-19T07:37:01.734Z,81.10
2022-08-19T07:41:04.538Z,80.60
2022-08-19T07:45:09.077Z,80.20
2022-08-19T07:49:18.402Z,80.10
2022-08-19T07:53:22.291Z,79.80
2022-08-19T07:57:25.072Z,79.30
2022-08-19T08:01:28.948Z,79.20
2022-08-19T08:05:51.826Z,78.10
2022-08-19T08:14:01.398Z,76.90
2022-08-19T08:18:07.467Z,75.30
2022-08-19T08:22:32.900Z,74.80
2022-08-19T08:26:35.665Z,74.90
2022-08-19T08:30:45.099Z,74.20
2022-08-19T08:34:51.705Z,73.50
2022-08-19T08:43:11.536Z,72.50
2022-08-19T08:47:57.437Z,72.50
2022-08-19T08:52:10.952Z,72.00
2022-08-19T08:56:16.873Z,70.70
2022-08-19T09:00:25.096Z,70.80
2022-08-19T09:04:28.902Z,71.50
2022-08-19T09:08:56.715Z,71.80
2022-08-19T09:13:21.842Z,71.40
2022-08-19T09:17:36.332Z,71.90
2022-08-19T09:22:04.518Z,71.30
2022-08-19T09:26:16.317Z,70.60
2022-08-19T09:30:23.700Z,70.50
2022-08-19T09:34:27.796Z,69.60
2022-08-19T09:38:30.942Z,70.40
2022-08-19T09:42:35.183Z,68.80
2022-08-19T09:46:39.204Z,68.80
2022-08-19T09:50:51.608Z,68.00
2022-08-19T09:54:55.114Z,67.60
2022-08-19T09:59:04.522Z,67.10
2022-08-19T10:03:07.917Z,66.50
2022-08-19T10:07:12.049Z,66.00
2022-08-19T10:11:28.398Z,65.90
2022-08-19T10:15:47.203Z,66.00
2022-08-19T10:19:55.639Z,65.60
2022-08-19T10:24:02.611Z,66.30
2022-08-19T10:28:10.612Z,66.60
2022-08-19T10:32:14.293Z,67.10
2022-08-19T10:36:20.050Z,67.30
2022-08-19T10:40:22.849Z,66.70
2022-08-19T10:44:32.272Z,66.30
2022-08-19T10:48:35.850Z,66.70
2022-08-19T10:52:39.189Z,66.40
2022-08-19T10:56:54.280Z,66.30
2022-08-19T11:00:59.729Z,65.90
2022-08-19T11:05:12.451Z,65.60
2022-08-19T11:09:21.801Z,65.90
2022-08-19T11:13:25.700Z,66.20
2022-08-19T11:17:29.028Z,66.10
2022-08-19T11:21:37.141Z,64.60
2022-08-19T11:25:40.491Z,65.10
2022-08-19T11:29:43.292Z,64.80
2022-08-19T11:33:47.942Z,65.20
2022-08-19T11:37:50.854Z,64.30
2022-08-19T11:41:53.798Z,64.50
2022-08-19T11:45:57.536Z,64.40
2022-08-19T11:50:00.621Z,62.90
2022-08-19T11:54:05.913Z,62.90
2022-08-19T11:58:18.920Z,61.90
2022-08-19T12:02:22.791Z,61.00
2022-08-19T12:06:29.640Z,62.50
2022-08-19T12:10:33.095Z,64.50
2022-08-19T12:14:36.430Z,64.50
2022-08-19T12:18:43.336Z,65.80
2022-08-19T12:22:46.089Z,65.90
2022-08-19T12:26:52.897Z,67.80
2022-08-19T12:30:57.945Z,68.90
2022-08-19T12:35:00.804Z,70.10
2022-08-19T12:39:04.517Z,70.90
2022-08-19T12:43:08.544Z,71.60
2022-08-19T12:47:15.373Z,72.20
2022-08-19T12:51:20.762Z,73.00
2022-08-19T12:55:23.549Z,71.10
2022-08-19T12:59:27.060Z,71.80
2022-08-19T13:03:30.819Z,71.90
2022-08-19T13:07:33.767Z,71.80
2022-08-19T13:11:36.570Z,71.60
2022-08-19T13:15:42.058Z,70.70
2022-08-19T13:19:44.794Z,70.90
2022-08-19T13:23:48.444Z,70.70
2022-08-19T13:27:52.113Z,72.00
2022-08-19T13:32:13.356Z,72.80
2022-08-19T13:36:21.566Z,73.40
2022-08-19T13:40:27.253Z,74.50
2022-08-19T13:44:30.601Z,73.70
2022-08-19T13:48:33.525Z,73.30
2022-08-19T13:52:36.290Z,74.10
2022-08-19T13:56:43.779Z,73.70
2022-08-19T14:00:47.998Z,73.10
2022-08-19T14:04:51.164Z,72.90
2022-08-19T14:08:54.016Z,72.10
2022-08-19T14:12:59.194Z,71.30
2022-08-19T14:17:02.074Z,70.30
2022-08-19T14:21:05.923Z,70.20
2022-08-19T14:25:10.840Z,69.10
2022-08-19T14:29:13.703Z,69.50
2022-08-19T14:33:16.641Z,66.90
2022-08-19T14:37:19.472Z,67.80
2022-08-19T14:41:23.684Z,66.20
2022-08-19T14:45:29.117Z,65.80
2022-08-19T14:49:34.879Z,63.70
2022-08-19T14:53:39.099Z,64.00
2022-08-19T14:57:42.658Z,63.60
2022-08-19T15:01:45.423Z,64.10
2022-08-19T15:05:48.394Z,62.90
2022-08-19T15:09:54.282Z,61.40
2022-08-19T15:13:57.946Z,60.60
2022-08-19T15:18:03.505Z,60.60
2022-08-19T15:22:06.396Z,60.40
2022-08-19T15:26:13.886Z,59.60
2022-08-19T15:30:23.811Z,58.10
2022-08-19T15:34:27.630Z,58.10
2022-08-19T15:38:30.503Z,54.80
2022-08-19T15:42:34.028Z,54.70
2022-08-19T15:46:40.256Z,52.80
2022-08-19T15:50:42.934Z,52.30
2022-08-19T15:54:45.685Z,51.10
2022-08-19T15:59:07.213Z,51.00
2022-08-19T16:03:32.934Z,51.40
2022-08-19T16:07:43.271Z,50.50
2022-08-19T16:11:56.570Z,49.60
2022-08-19T16:15:59.914Z,49.40
2022-08-19T16:20:05.470Z,48.90
2022-08-19T16:24:10.357Z,48.00
2022-08-19T16:28:13.452Z,47.10
2022-08-19T16:32:16.368Z,45.20
2022-08-19T16:36:19.279Z,43.80
2022-08-19T16:40:22.173Z,44.60
2022-08-19T16:44:25.331Z,43.10
2022-08-19T16:48:32.965Z,43.10
2022-08-19T16:52:37.713Z,41.60
2022-08-19T16:56:40.776Z,41.10
2022-08-19T17:00:43.703Z,41.30
2022-08-19T17:04:57.454Z,42.90
2022-08-19T17:09:02.065Z,44.10
2022-08-19T17:13:07.999Z,44.90
2022-08-19T17:17:12.766Z,46.60
2022-08-19T17:21:36.220Z,48.10
2022-08-19T17:25:39.557Z,48.90
2022-08-19T17:29:46.783Z,50.10
2022-08-19T17:33:52.626Z,50.00
2022-08-19T17:38:03.682Z,51.00
2022-08-19T17:42:06.955Z,52.40
2022-08-19T17:46:17.745Z,53.90
2022-08-19T17:50:22.547Z,54.90
2022-08-19T17:54:33.653Z,55.90
2022-08-19T17:58:38.091Z,56.90
2022-08-19T18:03:05.397Z,58.40
2022-08-19T18:07:10.177Z,58.20
2022-08-19T18:11:13.701Z,59.60
2022-08-19T18:15:17.490Z,60.20
2022-08-19T18:19:21.350Z,61.00
2022-08-19T18:23:45.421Z,61.70
2022-08-19T18:27:47.838Z,62.40
2022-08-19T18:31:50.621Z,62.90
2022-08-19T18:35:53.640Z,63.40
2022-08-19T18:40:15.021Z,63.90
2022-08-19T18:44:36.369Z,64.20
2022-08-19T18:49:00.639Z,64.50
2022-08-19T18:53:05.362Z,64.50
2022-08-19T18:57:08.489Z,65.20
2022-08-19T19:01:20.912Z,65.30
2022-08-19T19:05:25.563Z,65.80
2022-08-19T19:09:28.443Z,66.10
2022-08-19T19:13:32.861Z,66.60
2022-08-19T19:17:35.598Z,66.70
2022-08-19T19:21:42.324Z,67.10
2022-08-19T19:25:50.659Z,67.30
2022-08-19T19:29:54.498Z,67.50
2022-08-19T19:33:57.225Z,67.40
2022-08-19T19:38:00.341Z,67.60
2022-08-19T19:42:12.491Z,67.90
2022-08-19T19:46:18.223Z,68.20
2022-08-19T19:50:21.002Z,68.40
2022-08-19T19:54:23.852Z,69.00
2022-08-19T19:58:29.178Z,69.40
2022-08-19T20:02:32.153Z,69.60
2022-08-19T20:06:34.917Z,69.60
2022-08-19T20:10:38.521Z,69.90
2022-08-19T20:14:42.143Z,69.90
2022-08-19T20:18:45.158Z,69.90
2022-08-19T20:22:48.248Z,70.10
2022-08-19T20:26:53.406Z,70.00
2022-08-19T20:30:56.790Z,70.30
2022-08-19T20:35:01.883Z,70.40
2022-08-19T20:39:05.515Z,70.30
2022-08-19T20:43:13.248Z,70.30
2022-08-19T20:47:17.889Z,70.10
2022-08-19T20:51:30.564Z,70.40
2022-08-19T20:55:34.831Z,70.40
2022-08-19T20:59:37.963Z,70.40
2022-08-19T21:03:43.337Z,70.70
2022-08-19T21:07:46.622Z,70.90
2022-08-19T21:11:49.385Z,70.60
2022-08-19T21:15:52.730Z,70.90
2022-08-19T21:19:55.490Z,71.30
2022-08-19T21:23:58.153Z,71.40
2022-08-19T21:28:01.154Z,71.10
2022-08-19T21:32:04.655Z,71.20
2022-08-19T21:36:07.915Z,71.20
2022-08-19T21:40:11.257Z,71.40
2022-08-19T21:44:14.238Z,71.70
2022-08-19T21:48:17.412Z,71.50
2022-08-19T21:52:26.860Z,71.60
2022-08-19T21:56:29.614Z,71.60
2022-08-19T22:00:34.467Z,71.80
2022-08-19T22:04:40.945Z,71.70
2022-08-19T22:08:44.897Z,71.70
2022-08-19T22:12:51.713Z,71.70
2022-08-19T22:16:54.568Z,72.00
2022-08-19T22:20:58.020Z,72.50
2022-08-19T22:25:12.146Z,72.50
2022-08-19T22:29:17.218Z,72.90
2022-08-19T22:33:22.601Z,73.00
2022-08-19T22:37:26.039Z,73.50
2022-08-19T22:41:28.894Z,74.10
2022-08-19T22:45:33.469Z,74.50
2022-08-19T22:49:36.202Z,74.90
2022-08-19T22:53:42.345Z,74.60
2022-08-19T22:57:45.081Z,74.90
2022-08-19T23:01:47.878Z,75.00
2022-08-19T23:05:51.090Z,75.40
2022-08-19T23:09:55.408Z,75.60
2022-08-19T23:13:58.339Z,75.70
2022-08-19T23:18:03.844Z,76.00
2022-08-19T23:22:08.325Z,76.10
2022-08-19T23:26:11.767Z,76.30
2022-08-19T23:30:27.015Z,76.60
2022-08-19T23:34:29.775Z,76.80
2022-08-19T23:38:33.395Z,76.70
2022-08-19T23:42:41.214Z,76.70
2022-08-19T23:46:54.448Z,76.80
2022-08-19T23:50:58.647Z,76.50
2022-08-19T23:55:04.307Z,76.50
2022-08-19T23:59:07.152Z,76.50
